createdAt,value
2019-01-23T00:01:28.601Z,84.20
2019-01-23T00:03:57.702Z,83.90
2019-01-23T00:06:26.609Z,84.10
2019-01-23T00:08:54.841Z,84.10
2019-01-23T00:11:23.080Z,84.30
2019-01-23T00:13:51.355Z,84.10
2019-01-23T00:16:19.584Z,84.00
2019-01-23T00:18:47.849Z,84.10
2019-01-23T00:21:16.118Z,84.70
2019-01-23T00:23:44.322Z,84.20
2019-01-23T00:26:12.568Z,84.20
2019-01-23T00:28:42.392Z,84.10
2019-01-23T00:31:09.017Z,84.20
2019-01-23T00:33:37.240Z,84.30
2019-01-23T00:36:06.272Z,84.60
2019-01-23T00:38:35.186Z,84.50
2019-01-23T00:41:03.445Z,84.10
2019-01-23T00:43:31.710Z,84.40
2019-01-23T00:46:00.038Z,84.30
2019-01-23T00:48:28.276Z,84.50
2019-01-23T00:50:56.542Z,84.80
2019-01-23T00:53:24.777Z,84.30
2019-01-23T00:55:53.139Z,84.10
2019-01-23T00:58:21.421Z,83.80
2019-01-23T01:00:50.235Z,83.90
2019-01-23T01:03:18.474Z,83.90
2019-01-23T01:05:46.757Z,83.80
2019-01-23T01:08:15.670Z,84.10
2019-01-23T01:10:43.902Z,84.20
2019-01-23T01:13:12.158Z,84.10
2019-01-23T01:15:41.398Z,84.40
2019-01-23T01:18:09.600Z,84.20
2019-01-23T01:20:37.907Z,84.00
2019-01-23T01:23:06.214Z,84.00
2019-01-23T01:25:34.447Z,84.10
2019-01-23T01:28:02.817Z,84.00
2019-01-23T01:30:31.111Z,84.30
2019-01-23T01:32:59.494Z,84.30
2019-01-23T01:35:27.734Z,84.20
2019-01-23T01:37:55.963Z,83.80
2019-01-23T01:40:25.183Z,84.00
2019-01-23T01:42:53.405Z,84.00
2019-01-23T01:45:21.693Z,84.30
2019-01-23T01:47:50.022Z,84.40
2019-01-23T01:50:19.957Z,84.10
2019-01-23T01:52:48.266Z,84.40
2019-01-23T01:55:16.516Z,84.50
2019-01-23T01:57:44.765Z,84.30
2019-01-23T02:00:17.114Z,84.40
2019-01-23T02:02:45.365Z,84.00
2019-01-23T02:05:13.708Z,83.70
2019-01-23T02:07:41.979Z,83.90
2019-01-23T02:10:12.120Z,83.60
2019-01-23T02:12:40.357Z,83.60
2019-01-23T02:15:09.859Z,83.80
2019-01-23T02:17:38.102Z,83.40
2019-01-23T02:20:09.015Z,83.10
2019-01-23T02:22:37.277Z,83.10
2019-01-23T02:25:05.674Z,83.20
2019-01-23T02:27:33.933Z,83.00
2019-01-23T02:30:02.451Z,83.30
2019-01-23T02:32:30.737Z,83.40
2019-01-23T02:34:59.791Z,83.30
2019-01-23T02:37:27.996Z,83.70
2019-01-23T02:39:56.282Z,83.40
2019-01-23T02:42:24.509Z,83.40
2019-01-23T02:44:52.778Z,83.50
2019-01-23T02:47:21.030Z,83.70
2019-01-23T02:49:49.778Z,83.80
2019-01-23T02:52:18.029Z,83.40
2019-01-23T02:54:46.254Z,83.10
2019-01-23T02:57:14.477Z,83.00
2019-01-23T02:59:42.655Z,82.90
2019-01-23T03:02:10.922Z,82.40
2019-01-23T03:04:39.804Z,82.00
2019-01-23T03:07:08.082Z,81.90
2019-01-23T03:09:36.819Z,81.90
2019-01-23T03:12:05.086Z,81.90
2019-01-23T03:14:33.355Z,81.30
2019-01-23T03:17:01.551Z,81.90
2019-01-23T03:19:29.866Z,81.60
2019-01-23T03:21:58.123Z,81.70
2019-01-23T03:24:26.355Z,82.10
2019-01-23T03:26:54.606Z,81.90
2019-01-23T03:29:24.709Z,81.60
2019-01-23T03:31:51.798Z,81.90
2019-01-23T03:34:20.036Z,81.70
2019-01-23T03:36:48.232Z,82.10
2019-01-23T03:39:16.444Z,81.90
2019-01-23T03:41:45.554Z,81.60
2019-01-23T03:44:13.787Z,81.90
2019-01-23T03:46:42.024Z,81.60
2019-01-23T03:49:10.263Z,81.50
2019-01-23T03:51:38.479Z,81.40
2019-01-23T03:54:07.670Z,81.40
2019-01-23T03:56:36.044Z,81.20
2019-01-23T03:59:05.463Z,81.40
2019-01-23T04:01:33.836Z,82.30
2019-01-23T04:24:12.701Z,82.10
2019-01-23T04:26:41.006Z,81.70
2019-01-23T04:29:09.894Z,81.50
2019-01-23T04:31:38.133Z,81.60
2019-01-23T04:34:06.422Z,81.50
2019-01-23T04:36:34.701Z,82.00
2019-01-23T04:39:03.889Z,81.60
2019-01-23T04:41:32.197Z,81.60
2019-01-23T04:44:00.427Z,82.00
2019-01-23T04:46:29.003Z,81.80
2019-01-23T04:48:57.302Z,81.70
2019-01-23T04:51:37.622Z,81.60
2019-01-23T04:54:05.873Z,81.90
2019-01-23T04:56:34.423Z,81.50
2019-01-23T04:59:02.434Z,81.60
2019-01-23T05:01:30.691Z,81.40
2019-01-23T05:03:58.979Z,81.20
2019-01-23T05:06:27.242Z,80.90
2019-01-23T05:08:55.522Z,80.50
2019-01-23T05:11:23.804Z,80.50
2019-01-23T05:13:52.154Z,80.60
2019-01-23T05:16:20.420Z,80.60
2019-01-23T05:18:48.686Z,80.40
2019-01-23T05:21:16.948Z,80.50
2019-01-23T05:23:45.237Z,80.20
2019-01-23T05:26:13.975Z,80.70
2019-01-23T05:28:42.226Z,80.70
2019-01-23T05:31:10.480Z,80.20
2019-01-23T05:33:38.746Z,80.20
2019-01-23T05:36:07.043Z,80.10
2019-01-23T05:38:35.474Z,80.20
2019-01-23T05:41:04.824Z,80.20
2019-01-23T05:43:33.142Z,80.20
2019-01-23T05:46:02.387Z,80.00
2019-01-23T05:48:30.687Z,80.20
2019-01-23T05:50:58.926Z,80.20
2019-01-23T05:53:27.197Z,80.20
2019-01-23T05:55:55.435Z,80.00
2019-01-23T05:58:24.666Z,79.80
2019-01-23T06:00:52.926Z,79.90
2019-01-23T06:03:21.187Z,80.00
2019-01-23T06:05:49.590Z,80.20
2019-01-23T06:08:17.830Z,80.00
2019-01-23T06:10:46.702Z,80.20
2019-01-23T06:13:14.895Z,79.90
2019-01-23T06:15:43.152Z,79.90
2019-01-23T06:18:11.410Z,80.00
2019-01-23T06:20:39.696Z,80.10
2019-01-23T06:23:07.959Z,79.90
2019-01-23T06:25:36.194Z,79.90
2019-01-23T06:28:04.359Z,79.80
2019-01-23T06:30:32.631Z,79.90
2019-01-23T06:33:01.378Z,80.00
2019-01-23T06:35:30.286Z,80.00
2019-01-23T06:37:58.521Z,80.00
2019-01-23T06:40:27.731Z,79.80
2019-01-23T06:42:56.033Z,79.90
2019-01-23T06:45:24.334Z,80.00
2019-01-23T06:47:52.613Z,80.20
2019-01-23T06:50:22.024Z,80.40
2019-01-23T06:52:50.388Z,80.40
2019-01-23T06:55:18.663Z,80.90
2019-01-23T06:57:46.975Z,80.80
2019-01-23T07:00:17.627Z,82.30
2019-01-23T07:02:46.050Z,85.10
2019-01-23T07:05:14.354Z,85.50
2019-01-23T07:07:42.622Z,84.80
2019-01-23T07:10:13.077Z,81.00
2019-01-23T07:12:41.376Z,81.30
2019-01-23T07:15:10.141Z,81.50
2019-01-23T07:17:38.443Z,82.00
2019-01-23T07:20:09.516Z,80.80
2019-01-23T07:22:37.744Z,80.70
2019-01-23T07:25:06.717Z,79.90
2019-01-23T07:27:35.534Z,79.70
2019-01-23T07:30:05.545Z,80.40
2019-01-23T07:32:33.112Z,81.10
2019-01-23T07:35:01.368Z,80.60
2019-01-23T07:37:29.655Z,80.60
2019-01-23T07:39:58.422Z,80.80
2019-01-23T07:42:26.661Z,80.70
2019-01-23T07:44:54.919Z,80.50
2019-01-23T07:47:23.165Z,80.60
2019-01-23T07:49:52.366Z,80.40
2019-01-23T07:52:20.622Z,80.30
2019-01-23T07:54:48.829Z,80.10
2019-01-23T07:57:17.096Z,80.00
2019-01-23T07:59:45.352Z,79.90
2019-01-23T08:02:13.554Z,79.60
2019-01-23T08:04:41.822Z,79.70
2019-01-23T08:07:10.104Z,79.70
2019-01-23T08:09:38.435Z,79.60
2019-01-23T08:12:10.634Z,79.60
2019-01-23T08:14:35.399Z,79.20
2019-01-23T08:17:03.721Z,79.50
2019-01-23T08:19:32.097Z,79.40
2019-01-23T08:22:00.327Z,79.20
2019-01-23T08:24:28.615Z,78.50
2019-01-23T08:26:56.910Z,78.30
2019-01-23T08:29:25.130Z,78.20
2019-01-23T08:31:53.380Z,78.00
2019-01-23T08:34:21.662Z,77.80
2019-01-23T08:36:49.910Z,77.20
2019-01-23T08:39:18.320Z,77.10
2019-01-23T08:41:46.603Z,76.90
2019-01-23T08:44:15.730Z,77.10
2019-01-23T08:46:44.875Z,76.60
2019-01-23T08:49:13.103Z,76.30
2019-01-23T08:51:43.080Z,76.30
2019-01-23T08:54:11.306Z,76.50
2019-01-23T08:56:39.568Z,75.90
2019-01-23T08:59:07.834Z,75.80
2019-01-23T09:01:36.112Z,75.50
2019-01-23T09:04:05.379Z,75.90
2019-01-23T09:06:33.655Z,76.10
2019-01-23T09:09:01.963Z,76.60
2019-01-23T09:11:30.299Z,76.20
2019-01-23T09:15:34.430Z,75.60
2019-01-23T09:18:02.698Z,75.40
2019-01-23T09:20:30.934Z,75.60
2019-01-23T09:22:59.227Z,75.20
2019-01-23T09:25:27.506Z,75.10
2019-01-23T09:27:55.796Z,75.00
2019-01-23T09:30:28.958Z,75.00
2019-01-23T09:33:09.341Z,75.20
2019-01-23T09:35:44.926Z,75.60
2019-01-23T09:40:26.946Z,75.20
2019-01-23T09:43:11.720Z,74.80
2019-01-23T09:46:52.970Z,75.20
2019-01-23T09:49:32.714Z,75.40
2019-01-23T09:52:14.113Z,74.00
2019-01-23T09:54:42.432Z,73.70
2019-01-23T09:57:10.730Z,73.40
2019-01-23T09:59:38.987Z,73.40
2019-01-23T10:02:07.226Z,72.90
2019-01-23T10:04:35.453Z,72.60
2019-01-23T10:07:03.713Z,72.00
2019-01-23T10:09:32.027Z,72.50
2019-01-23T10:12:00.542Z,72.90
2019-01-23T10:14:28.854Z,73.40
2019-01-23T10:16:57.154Z,73.60
2019-01-23T10:19:25.434Z,73.70
2019-01-23T10:21:53.710Z,74.50
2019-01-23T10:24:22.500Z,74.00
2019-01-23T10:26:50.794Z,73.60
2019-01-23T10:29:19.026Z,73.50
2019-01-23T10:31:47.326Z,74.20
2019-01-23T10:34:15.604Z,74.00
2019-01-23T10:36:43.841Z,73.70
2019-01-23T10:39:12.091Z,73.90
2019-01-23T10:41:40.334Z,73.70
2019-01-23T10:44:08.565Z,73.80
2019-01-23T10:46:36.877Z,73.90
2019-01-23T10:49:06.148Z,74.20
2019-01-23T10:51:34.319Z,74.30
2019-01-23T10:54:04.860Z,74.60
2019-01-23T10:56:33.879Z,74.90
2019-01-23T10:59:02.163Z,75.20
2019-01-23T11:01:30.389Z,75.70
2019-01-23T11:03:58.654Z,75.40
2019-01-23T11:06:26.938Z,75.00
2019-01-23T11:08:55.209Z,74.70
2019-01-23T11:11:23.464Z,74.80
2019-01-23T11:13:51.681Z,75.00
2019-01-23T11:16:19.951Z,75.20
2019-01-23T11:18:48.239Z,75.10
2019-01-23T11:21:17.662Z,75.00
2019-01-23T11:23:44.785Z,75.20
2019-01-23T11:26:13.041Z,74.60
2019-01-23T11:28:42.352Z,74.40
2019-01-23T11:31:10.599Z,73.70
2019-01-23T11:33:38.909Z,73.70
2019-01-23T11:36:07.133Z,74.00
2019-01-23T11:38:36.158Z,74.40
2019-01-23T11:41:04.482Z,74.40
2019-01-23T11:43:32.756Z,74.40
2019-01-23T11:46:01.017Z,74.40
2019-01-23T11:48:29.271Z,74.30
2019-01-23T11:50:58.111Z,74.10
2019-01-23T11:53:26.363Z,74.80
2019-01-23T11:55:54.631Z,75.50
2019-01-23T11:58:23.553Z,75.70
2019-01-23T12:00:51.889Z,75.80
2019-01-23T12:03:21.037Z,76.10
2019-01-23T12:05:48.443Z,76.00
2019-01-23T12:08:16.691Z,76.20
2019-01-23T12:10:44.941Z,75.80
2019-01-23T12:13:13.182Z,75.80
2019-01-23T12:15:41.405Z,75.40
2019-01-23T12:18:09.657Z,75.80
2019-01-23T12:20:37.921Z,75.40
2019-01-23T12:23:06.481Z,75.30
2019-01-23T12:25:35.402Z,75.50
2019-01-23T12:28:10.089Z,75.90
2019-01-23T12:30:39.191Z,75.50
2019-01-23T12:33:07.448Z,75.70
2019-01-23T12:35:35.702Z,75.70
2019-01-23T12:38:04.687Z,75.90
2019-01-23T12:40:32.965Z,76.00
2019-01-23T12:43:01.174Z,76.70
2019-01-23T12:45:29.490Z,76.30
2019-01-23T12:47:57.767Z,76.50
2019-01-23T12:50:28.510Z,76.20
2019-01-23T12:52:56.759Z,76.50
2019-01-23T12:55:25.034Z,76.80
2019-01-23T12:57:53.295Z,76.90
2019-01-23T13:00:24.111Z,77.20
2019-01-23T13:02:52.418Z,77.20
2019-01-23T13:05:20.962Z,77.10
2019-01-23T13:07:49.273Z,77.30
2019-01-23T13:10:18.717Z,77.40
2019-01-23T13:12:46.977Z,77.20
2019-01-23T13:15:17.695Z,76.60
2019-01-23T13:17:46.715Z,76.80
2019-01-23T13:20:15.718Z,76.60
2019-01-23T13:22:44.685Z,76.90
2019-01-23T13:25:16.106Z,77.00
2019-01-23T13:27:44.411Z,76.70
2019-01-23T13:30:15.248Z,77.40
2019-01-23T13:32:43.535Z,78.30
2019-01-23T13:35:13.121Z,77.20
2019-01-23T13:37:41.445Z,77.30
2019-01-23T13:40:14.807Z,77.10
2019-01-23T13:42:43.530Z,77.20
2019-01-23T13:45:11.854Z,77.20
2019-01-23T13:47:40.062Z,77.20
2019-01-23T13:50:08.939Z,77.10
2019-01-23T13:52:37.282Z,77.30
2019-01-23T13:55:07.261Z,76.90
2019-01-23T13:57:35.539Z,76.90
2019-01-23T14:00:04.895Z,76.60
2019-01-23T14:02:34.007Z,77.10
2019-01-23T14:05:02.287Z,77.40
2019-01-23T14:07:30.638Z,77.20
2019-01-23T14:09:58.854Z,77.20
2019-01-23T14:12:27.198Z,77.00
2019-01-23T14:14:55.535Z,77.00
2019-01-23T14:17:30.239Z,77.30
2019-01-23T14:19:58.486Z,76.50
2019-01-23T14:22:27.550Z,76.70
2019-01-23T14:24:55.807Z,76.70
2019-01-23T14:27:24.010Z,77.10
2019-01-23T14:29:52.286Z,77.30
2019-01-23T14:32:21.552Z,76.90
2019-01-23T14:34:49.867Z,76.90
2019-01-23T14:37:18.159Z,77.00
2019-01-23T14:39:46.371Z,77.20
2019-01-23T14:42:14.674Z,77.70
2019-01-23T14:44:42.962Z,77.90
2019-01-23T14:47:11.274Z,77.90
2019-01-23T14:49:39.554Z,78.00
2019-01-23T14:52:07.950Z,80.00
2019-01-23T14:54:36.196Z,79.00
2019-01-23T14:57:04.494Z,78.50
2019-01-23T14:59:32.764Z,78.80
2019-01-23T15:02:01.019Z,78.60
2019-01-23T15:04:29.283Z,79.00
2019-01-23T15:06:57.533Z,79.10
2019-01-23T15:09:25.786Z,79.00
2019-01-23T15:11:54.030Z,78.90
2019-01-23T15:14:22.245Z,79.10
2019-01-23T15:16:50.509Z,79.90
2019-01-23T15:19:18.830Z,80.10
2019-01-23T15:21:47.138Z,80.20
2019-01-23T15:24:15.418Z,80.30
2019-01-23T15:26:43.703Z,80.40
2019-01-23T15:29:11.962Z,80.40
2019-01-23T15:31:40.231Z,80.60
2019-01-23T15:34:08.643Z,80.40
2019-01-23T15:36:36.969Z,80.40
2019-01-23T15:39:07.806Z,80.30
2019-01-23T15:41:36.096Z,80.40
2019-01-23T15:44:04.414Z,80.20
2019-01-23T15:46:32.614Z,80.60
2019-01-23T15:49:00.859Z,80.80
2019-01-23T15:51:29.107Z,80.60
2019-01-23T15:53:57.305Z,80.80
2019-01-23T15:56:25.557Z,80.50
2019-01-23T15:58:53.801Z,80.20
2019-01-23T16:01:22.021Z,80.30
2019-01-23T16:03:50.302Z,80.80
2019-01-23T16:06:18.578Z,80.10
2019-01-23T16:08:46.798Z,79.90
2019-01-23T16:11:15.654Z,79.90
2019-01-23T16:13:43.936Z,80.10
2019-01-23T16:16:12.737Z,80.00
2019-01-23T16:18:40.999Z,80.50
2019-01-23T16:21:09.255Z,80.10
2019-01-23T16:23:37.597Z,80.40
2019-01-23T16:26:05.891Z,80.50
2019-01-23T16:28:34.998Z,80.50
2019-01-23T16:31:03.853Z,80.40
2019-01-23T16:33:32.480Z,80.20
2019-01-23T16:36:00.703Z,80.50
2019-01-23T16:38:28.952Z,80.40
2019-01-23T16:40:57.186Z,80.50
2019-01-23T16:43:25.535Z,80.60
2019-01-23T16:45:53.862Z,80.70
2019-01-23T16:48:22.154Z,81.40
2019-01-23T16:50:50.426Z,81.10
2019-01-23T16:53:18.577Z,80.80
2019-01-23T16:55:46.751Z,80.80
2019-01-23T16:58:14.868Z,80.80
2019-01-23T17:00:44.119Z,80.90
2019-01-23T17:03:13.318Z,81.10
2019-01-23T17:05:41.990Z,80.70
2019-01-23T17:08:10.140Z,80.80
2019-01-23T17:10:38.367Z,80.70
2019-01-23T17:13:06.650Z,80.90
2019-01-23T17:15:34.878Z,80.90
2019-01-23T17:18:03.107Z,81.40
2019-01-23T17:20:37.099Z,81.60
2019-01-23T17:23:05.659Z,81.60
2019-01-23T17:25:34.071Z,81.70
2019-01-23T17:28:02.338Z,81.60
2019-01-23T17:30:30.634Z,81.70
2019-01-23T17:32:58.929Z,81.70
2019-01-23T17:35:27.193Z,81.50
2019-01-23T17:37:55.433Z,81.20
2019-01-23T17:40:23.648Z,81.00
2019-01-23T17:42:51.827Z,81.30
2019-01-23T17:45:22.754Z,81.70
2019-01-23T17:47:50.702Z,81.10
2019-01-23T17:50:19.781Z,80.90
2019-01-23T17:52:47.997Z,80.80
2019-01-23T17:55:20.893Z,80.50
2019-01-23T17:57:49.154Z,80.00
2019-01-23T18:00:21.432Z,80.60
2019-01-23T18:02:52.907Z,80.40
2019-01-23T18:05:18.025Z,80.30
2019-01-23T18:07:46.297Z,80.50
2019-01-23T18:10:15.534Z,80.30
2019-01-23T18:12:43.814Z,80.20
2019-01-23T18:15:14.441Z,79.80
2019-01-23T18:17:42.662Z,80.10
2019-01-23T18:20:13.643Z,80.20
2019-01-23T18:22:41.884Z,79.80
2019-01-23T18:25:11.079Z,79.60
2019-01-23T18:27:39.371Z,79.30
2019-01-23T18:30:14.982Z,79.60
2019-01-23T18:32:43.230Z,79.50
2019-01-23T18:35:41.852Z,79.40
2019-01-23T18:38:17.337Z,79.60
2019-01-23T18:43:09.060Z,79.40
2019-01-23T18:45:47.278Z,79.50
2019-01-23T18:48:26.413Z,79.50
2019-01-23T18:51:07.751Z,79.70
2019-01-23T18:53:36.939Z,79.40
2019-01-23T18:56:05.498Z,79.30
2019-01-23T18:58:33.751Z,79.40
2019-01-23T19:01:02.045Z,79.30
2019-01-23T19:03:30.505Z,79.10
2019-01-23T19:05:58.746Z,79.10
2019-01-23T19:08:28.212Z,79.10
2019-01-23T19:10:56.472Z,79.20
2019-01-23T19:13:24.687Z,79.80
2019-01-23T19:15:52.879Z,80.20
2019-01-23T19:18:21.102Z,79.90
2019-01-23T19:20:49.401Z,79.60
2019-01-23T19:23:17.697Z,79.40
2019-01-23T19:25:45.983Z,79.00
2019-01-23T19:28:14.262Z,79.40
2019-01-23T19:30:42.491Z,79.50
2019-01-23T19:33:13.596Z,79.50
2019-01-23T19:35:38.977Z,79.30
2019-01-23T19:38:07.206Z,79.20
2019-01-23T19:40:35.507Z,79.30
2019-01-23T19:43:03.933Z,79.70
2019-01-23T19:45:31.994Z,79.80
2019-01-23T19:48:00.784Z,79.60
2019-01-23T19:50:29.028Z,80.10
2019-01-23T19:52:57.282Z,80.30
2019-01-23T19:55:25.505Z,80.20
2019-01-23T19:57:53.767Z,80.00
2019-01-23T20:00:23.136Z,80.10
2019-01-23T20:02:51.438Z,80.10
2019-01-23T20:05:22.745Z,80.30
2019-01-23T20:07:51.006Z,79.90
2019-01-23T20:10:20.422Z,79.70
2019-01-23T20:12:48.714Z,79.90
2019-01-23T20:15:17.698Z,80.10
2019-01-23T20:17:45.998Z,80.40
2019-01-23T20:20:14.375Z,80.30
2019-01-23T20:22:49.282Z,80.30
2019-01-23T20:25:20.585Z,80.20
2019-01-23T20:27:49.946Z,80.60
2019-01-23T20:30:22.594Z,80.70
2019-01-23T20:32:50.860Z,80.60
2019-01-23T20:35:19.073Z,80.20
2019-01-23T20:37:47.329Z,80.30
2019-01-23T20:40:16.021Z,80.30
2019-01-23T20:42:44.987Z,80.20
2019-01-23T20:45:13.879Z,80.40
2019-01-23T20:47:43.035Z,80.60
2019-01-23T20:50:15.594Z,80.60
2019-01-23T20:52:43.882Z,80.20
2019-01-23T20:55:12.241Z,80.20
2019-01-23T20:57:40.602Z,80.00
2019-01-23T21:00:13.135Z,79.70
2019-01-23T21:02:41.402Z,79.90
2019-01-23T21:05:09.722Z,80.10
2019-01-23T21:07:38.192Z,79.50
2019-01-23T21:10:08.138Z,79.40
2019-01-23T21:12:36.517Z,79.20
2019-01-23T21:15:05.620Z,78.70
2019-01-23T21:17:33.894Z,79.50
2019-01-23T21:20:02.252Z,78.90
2019-01-23T21:22:30.766Z,78.90
2019-01-23T21:24:59.246Z,78.70
2019-01-23T21:27:27.514Z,78.40
2019-01-23T21:29:55.764Z,78.50
2019-01-23T21:32:24.018Z,78.40
2019-01-23T21:34:52.265Z,78.80
2019-01-23T21:37:20.502Z,78.80
2019-01-23T21:39:48.818Z,78.90
2019-01-23T21:42:17.006Z,78.70
2019-01-23T21:44:45.249Z,78.70
2019-01-23T21:47:13.570Z,78.30
2019-01-23T21:49:41.817Z,78.60
2019-01-23T21:52:10.157Z,78.40
2019-01-23T21:54:39.415Z,78.60
2019-01-23T21:57:07.778Z,77.90
2019-01-23T21:59:36.009Z,77.80
2019-01-23T22:02:04.285Z,77.60
2019-01-23T22:04:32.606Z,77.40
2019-01-23T22:07:00.913Z,77.60
2019-01-23T22:09:29.150Z,77.90
2019-01-23T22:11:57.379Z,77.80
2019-01-23T22:14:25.685Z,78.10
2019-01-23T22:16:53.961Z,77.70
2019-01-23T22:19:22.178Z,78.20
2019-01-23T22:21:50.437Z,77.80
2019-01-23T22:24:18.769Z,77.90
2019-01-23T22:26:46.991Z,77.70
2019-01-23T22:29:15.281Z,77.80
2019-01-23T22:31:43.622Z,77.60
2019-01-23T22:34:11.839Z,77.30
2019-01-23T22:36:40.092Z,77.30
2019-01-23T22:39:08.552Z,77.60
2019-01-23T22:41:36.804Z,77.40
2019-01-23T22:44:05.118Z,77.30
2019-01-23T22:46:33.432Z,77.10
2019-01-23T22:49:01.698Z,77.10
2019-01-23T22:51:29.933Z,77.30
2019-01-23T22:53:58.166Z,77.30
2019-01-23T22:56:26.430Z,77.40
2019-01-23T22:58:54.716Z,76.60
2019-01-23T23:01:25.710Z,77.00
2019-01-23T23:03:54.445Z,77.30
2019-01-23T23:06:22.703Z,77.20
2019-01-23T23:08:50.981Z,77.20
2019-01-23T23:11:19.271Z,77.10
2019-01-23T23:13:47.571Z,76.90
2019-01-23T23:16:15.855Z,77.30
2019-01-23T23:18:44.195Z,76.80
2019-01-23T23:21:12.426Z,76.90
2019-01-23T23:23:41.192Z,76.80
2019-01-23T23:26:09.454Z,76.80
2019-01-23T23:28:37.747Z,77.60
2019-01-23T23:31:06.117Z,76.80
2019-01-23T23:33:34.358Z,77.40
2019-01-23T23:36:02.680Z,77.20
2019-01-23T23:38:31.023Z,77.20
2019-01-23T23:40:59.265Z,77.40
2019-01-23T23:43:27.454Z,77.20
2019-01-23T23:45:55.734Z,77.40
2019-01-23T23:48:23.973Z,77.20
2019-01-23T23:50:52.250Z,77.20
2019-01-23T23:53:20.478Z,77.60
2019-01-23T23:55:48.701Z,77.30
2019-01-23T23:58:16.952Z,77.20
